Time;durP1;ratioP1;P1;durP2;ratioP2;P2;SDS_P1;SDS_P2;PMS_P1;PMS_P2;Temp;Humidity;BMP_temperature;BMP_pressure;BME280_temperature;BME280_humidity;BME280_pressure;Samples;Min_cycle;Max_cycle;Signal;HPM_P1;HPM_P2
2023/09/27 00:00:46;;;;;;;;;;;;;;;14.37;82.56;102110.05;106316;1259;61291;-80
2023/09/27 00:03:33;;;;;;;;;;;;;;;14.37;82.49;102105.46;106359;1259;125169;-78
2023/09/27 00:05:59;;;;;;;;;;;;;;;14.37;82.40;102109.16;106109;1259;74726;-81
2023/09/27 00:08:26;;;;;;;;;;;;;;;14.36;82.28;102103.48;106181;1260;65616;-80
2023/09/27 00:10:52;;;;;;;;;;;;;;;14.31;82.11;102104.73;106158;1263;124906;-79
2023/09/27 00:13:19;;;;;;;;;;;;;;;14.27;82.08;102103.38;106145;1265;61349;-80
2023/09/27 00:15:45;;;;;;;;;;;;;;;14.23;82.06;102107.65;106223;1259;125399;-80
2023/09/27 00:18:12;;;;;;;;;;;;;;;14.20;82.26;102108.64;106242;1264;74596;-80
2023/09/27 00:20:39;;;;;;;;;;;;;;;14.17;82.18;102107.66;106317;1259;66032;-80
2023/09/27 00:23:07;;;;;;;;;;;;;;;14.14;82.11;102103.67;106122;1261;125249;-80
2023/09/27 00:25:34;;;;;;;;;;;;;;;14.11;82.15;102103.59;106264;1259;61517;-78
2023/09/27 00:28:00;;;;;;;;;;;;;;;14.09;82.10;102100.67;106140;1259;124970;-79
2023/09/27 00:30:27;;;;;;;;;;;;;;;14.05;82.18;102098.45;106230;1259;74720;-79
2023/09/27 00:32:54;;;;;;;;;;;;;;;14.02;82.25;102098.52;106202;1259;66276;-78
2023/09/27 00:35:22;;;;;;;;;;;;;;;14.02;82.45;102097.80;106085;1259;126410;-78
2023/09/27 00:37:49;;;;;;;;;;;;;;;14.00;82.39;102095.98;106196;1261;60800;-78
2023/09/27 00:40:18;;;;;;;;;;;;;;;13.98;82.42;102093.29;106260;1259;124852;-79
2023/09/27 00:42:47;;;;;;;;;;;;;;;13.98;82.36;102091.36;106267;1259;73375;-79
2023/09/27 00:45:13;;;;;;;;;;;;;;;13.95;82.17;102092.46;108295;1260;66249;-78
2023/09/27 00:47:40;;;;;;;;;;;;;;;13.92;82.18;102089.91;106197;1261;124767;-79
2023/09/27 00:50:07;;;;;;;;;;;;;;;13.90;82.16;102085.95;106091;1260;61341;-79
2023/09/27 00:52:36;;;;;;;;;;;;;;;13.88;82.13;102084.46;106023;1259;124903;-80
2023/09/27 00:55:02;;;;;;;;;;;;;;;13.87;82.30;102084.63;106030;1260;72701;-80
2023/09/27 00:57:29;;;;;;;;;;;;;;;13.87;82.25;102086.57;106109;1258;124894;-79
2023/09/27 00:59:55;;;;;;;;;;;;;;;13.87;82.43;102086.20;106135;1259;61400;-79
2023/09/27 01:02:22;;;;;;;;;;;;;;;13.86;82.28;102082.63;106168;1262;61266;-79
2023/09/27 01:04:48;;;;;;;;;;;;;;;13.84;82.32;102081.89;106119;1259;125581;-79
2023/09/27 01:07:15;;;;;;;;;;;;;;;13.84;82.36;102080.83;106325;1259;61375;-79
2023/09/27 01:09:41;;;;;;;;;;;;;;;13.84;82.34;102078.34;106228;1259;125178;-78
2023/09/27 01:12:08;;;;;;;;;;;;;;;13.82;82.40;102076.35;106438;1259;71228;-78
2023/09/27 01:14:34;;;;;;;;;;;;;;;13.81;82.32;102080.02;106321;1259;61292;-78
2023/09/27 01:17:10;;;;;;;;;;;;;;;13.78;82.22;102079.39;106162;1259;125065;-78
2023/09/27 01:19:37;;;;;;;;;;;;;;;13.75;82.37;102077.71;106295;1259;74657;-79
2023/09/27 01:22:04;;;;;;;;;;;;;;;13.74;82.35;102073.61;106244;1259;125131;-79
2023/09/27 01:24:31;;;;;;;;;;;;;;;13.73;82.42;102073.73;106253;1259;71427;-79
2023/09/27 01:26:57;;;;;;;;;;;;;;;13.71;82.40;102074.56;106226;1264;61277;-79
2023/09/27 01:29:24;;;;;;;;;;;;;;;13.68;82.47;102072.17;106140;1259;124930;-79
2023/09/27 01:31:50;;;;;;;;;;;;;;;13.66;82.45;102075.46;106185;1261;61323;-79
2023/09/27 01:34:17;;;;;;;;;;;;;;;13.64;82.55;102076.98;106195;1258;125168;-79
2023/09/27 01:36:44;;;;;;;;;;;;;;;13.63;82.48;102077.48;106363;1263;72708;-79
2023/09/27 01:39:10;;;;;;;;;;;;;;;13.61;82.41;102082.52;106340;1263;61157;-79
2023/09/27 01:41:37;;;;;;;;;;;;;;;13.58;82.38;102084.21;106232;1260;125061;-78
2023/09/27 01:44:03;;;;;;;;;;;;;;;13.58;82.57;102086.14;106378;1259;74482;-78
2023/09/27 01:46:30;;;;;;;;;;;;;;;13.59;82.54;102083.88;106229;1263;124790;-78
2023/09/27 01:48:56;;;;;;;;;;;;;;;13.56;82.44;102085.89;106325;1259;71427;-78
2023/09/27 01:51:23;;;;;;;;;;;;;;;13.56;82.57;102091.70;106183;1260;124960;-78
2023/09/27 01:53:50;;;;;;;;;;;;;;;13.55;82.58;102092.20;106149;1261;61175;-78
2023/09/27 01:56:16;;;;;;;;;;;;;;;13.52;82.53;102095.25;106294;1259;73172;-79
2023/09/27 01:58:43;;;;;;;;;;;;;;;13.49;82.50;102093.75;106304;1261;124795;-78
2023/09/27 02:01:09;;;;;;;;;;;;;;;13.47;82.58;102091.57;106337;1259;72699;-78
2023/09/27 02:03:36;;;;;;;;;;;;;;;13.46;82.64;102090.98;106289;1258;125021;-79
2023/09/27 02:06:02;;;;;;;;;;;;;;;13.45;82.71;102090.09;106293;1260;60163;-79
2023/09/27 02:08:30;;;;;;;;;;;;;;;13.43;82.71;102087.90;106340;1258;74742;-80
2023/09/27 02:10:56;;;;;;;;;;;;;;;13.43;82.69;102085.95;106188;1259;124797;-80
2023/09/27 02:13:23;;;;;;;;;;;;;;;13.41;82.83;102083.43;106424;1261;72918;-80
2023/09/27 02:15:50;;;;;;;;;;;;;;;13.41;82.79;102081.16;106322;1264;125515;-80
2023/09/27 02:18:16;;;;;;;;;;;;;;;13.40;82.75;102079.88;106348;1260;61261;-80
2023/09/27 02:20:43;;;;;;;;;;;;;;;13.39;82.85;102077.39;106282;1262;74731;-80
2023/09/27 02:23:10;;;;;;;;;;;;;;;13.38;82.81;102075.41;106236;1264;124848;-80
2023/09/27 02:25:36;;;;;;;;;;;;;;;13.37;82.79;102071.31;106469;1259;71394;-80
2023/09/27 02:28:04;;;;;;;;;;;;;;;13.36;82.91;102071.13;106278;1259;125113;-79
2023/09/27 02:30:30;;;;;;;;;;;;;;;13.37;82.92;102069.90;106526;1260;61274;-79
2023/09/27 02:32:57;;;;;;;;;;;;;;;13.36;82.94;102072.17;106303;1259;74810;-80
2023/09/27 02:35:23;;;;;;;;;;;;;;;13.35;82.93;102073.72;106232;1259;125381;-80
2023/09/27 02:37:50;;;;;;;;;;;;;;;13.34;82.97;102076.48;106182;1265;73300;-79
2023/09/27 02:40:17;;;;;;;;;;;;;;;13.33;83.05;102072.91;106206;1258;125293;-79
2023/09/27 02:42:44;;;;;;;;;;;;;;;13.32;83.03;102072.88;106177;1263;61276;-79
2023/09/27 02:45:11;;;;;;;;;;;;;;;13.30;83.00;102073.17;106369;1259;73389;-80
2023/09/27 02:47:38;;;;;;;;;;;;;;;13.30;83.03;102074.20;106157;1259;125172;-80
2023/09/27 02:50:08;;;;;;;;;;;;;;;13.30;83.00;102069.83;106292;1259;72492;-81
2023/09/27 02:52:34;;;;;;;;;;;;;;;13.30;83.05;102068.58;106243;1258;125075;-80
2023/09/27 02:55:01;;;;;;;;;;;;;;;13.31;83.02;102068.45;106248;1259;61309;-79
2023/09/27 02:57:27;;;;;;;;;;;;;;;13.32;83.07;102066.17;106314;1264;125021;-79
2023/09/27 02:59:54;;;;;;;;;;;;;;;13.30;82.93;102065.25;106347;1263;64936;-80
2023/09/27 03:02:21;;;;;;;;;;;;;;;13.29;82.99;102061.98;106385;1258;71415;-80
2023/09/27 03:04:48;;;;;;;;;;;;;;;13.30;83.00;102061.68;106229;1259;125041;-80
2023/09/27 03:07:14;;;;;;;;;;;;;;;13.32;83.04;102063.02;106364;1258;61349;-80
2023/09/27 03:09:41;;;;;;;;;;;;;;;13.34;83.10;102066.46;106284;1261;124917;-80
2023/09/27 03:12:08;;;;;;;;;;;;;;;13.35;82.89;102066.30;106372;1259;66633;-80
2023/09/27 03:14:35;;;;;;;;;;;;;;;13.33;82.86;102068.00;106271;1259;72882;-80
2023/09/27 03:17:02;;;;;;;;;;;;;;;13.33;82.82;102070.29;106261;1263;124984;-80
2023/09/27 03:19:28;;;;;;;;;;;;;;;13.33;82.84;102068.17;106203;1259;61356;-80
2023/09/27 03:21:55;;;;;;;;;;;;;;;13.34;82.79;102066.98;106298;1264;126117;-80
2023/09/27 03:24:21;;;;;;;;;;;;;;;13.35;82.68;102065.40;106431;1259;61379;-81
2023/09/27 03:26:48;;;;;;;;;;;;;;;13.32;82.55;102060.73;106360;1263;71450;-83
2023/09/27 03:29:14;;;;;;;;;;;;;;;13.31;82.43;102057.51;106294;1262;125197;-79
2023/09/27 03:31:41;;;;;;;;;;;;;;;13.33;82.71;102061.64;106358;1264;61193;-83
2023/09/27 03:34:07;;;;;;;;;;;;;;;13.35;82.63;102059.23;106242;1259;124974;-81
2023/09/27 03:36:34;;;;;;;;;;;;;;;13.39;82.78;102060.80;106335;1259;59367;-84
2023/09/27 03:39:00;;;;;;;;;;;;;;;13.39;82.50;102056.39;106395;1259;72498;-84
2023/09/27 03:41:27;;;;;;;;;;;;;;;13.40;82.62;102054.65;106308;1259;126233;-84
2023/09/27 03:43:54;;;;;;;;;;;;;;;13.45;82.69;102053.23;106346;1259;61379;-82
2023/09/27 03:46:21;;;;;;;;;;;;;;;13.47;82.73;102059.30;106301;1259;125194;-84
2023/09/27 03:48:48;;;;;;;;;;;;;;;13.51;82.84;102058.71;106373;1259;66474;-85
2023/09/27 03:51:22;;;;;;;;;;;;;;;13.54;82.89;102062.70;106344;1259;72756;-83
2023/09/27 03:53:49;;;;;;;;;;;;;;;13.54;82.87;102063.59;106211;1259;61488;-82
2023/09/27 03:56:15;;;;;;;;;;;;;;;13.54;82.98;102065.89;106358;1260;61185;-84
2023/09/27 03:58:42;;;;;;;;;;;;;;;13.54;82.93;102068.02;106198;1259;125053;-86
2023/09/27 04:01:08;;;;;;;;;;;;;;;13.53;83.02;102066.39;106458;1259;64975;-86
2023/09/27 04:03:35;;;;;;;;;;;;;;;13.54;83.07;102066.25;106213;1259;125173;-86
2023/09/27 04:06:01;;;;;;;;;;;;;;;13.57;83.19;102064.58;106317;1259;61261;-86
2023/09/27 04:08:28;;;;;;;;;;;;;;;13.59;83.22;102066.96;106297;1259;61812;-87
2023/09/27 04:10:54;;;;;;;;;;;;;;;13.61;83.34;102071.94;106342;1259;124991;-86
2023/09/27 04:13:21;;;;;;;;;;;;;;;13.63;83.40;102070.41;106448;1262;65066;-85
2023/09/27 04:15:50;;;;;;;;;;;;;;;13.64;83.38;102074.52;106203;1263;125053;-86
2023/09/27 04:18:17;;;;;;;;;;;;;;;13.65;83.37;102069.61;106363;1258;61365;-85
2023/09/27 04:20:44;;;;;;;;;;;;;;;13.65;83.30;102068.70;106237;1259;61301;-86
2023/09/27 04:23:10;;;;;;;;;;;;;;;13.62;83.37;102066.70;106404;1259;124969;-86
2023/09/27 04:25:38;;;;;;;;;;;;;;;13.61;83.54;102068.44;106692;1259;61367;-90
2023/09/27 04:28:05;;;;;;;;;;;;;;;13.60;83.63;102065.23;106922;1259;125138;-91
2023/09/27 04:30:32;;;;;;;;;;;;;;;13.61;83.71;102063.30;106355;1264;61365;-84
2023/09/27 04:32:58;;;;;;;;;;;;;;;13.62;83.83;102060.33;106398;1263;61129;-83
2023/09/27 04:35:25;;;;;;;;;;;;;;;13.63;83.81;102054.70;106362;1263;125293;-83
2023/09/27 04:37:52;;;;;;;;;;;;;;;13.63;83.87;102058.79;106537;1264;64696;-84
2023/09/27 04:40:19;;;;;;;;;;;;;;;13.64;83.90;102064.46;106356;1259;123841;-85
2023/09/27 04:42:46;;;;;;;;;;;;;;;13.66;83.87;102065.58;106429;1259;61367;-80
2023/09/27 04:45:13;;;;;;;;;;;;;;;13.65;83.81;102065.91;105832;1259;61202;-82
2023/09/27 04:47:40;;;;;;;;;;;;;;;13.63;83.64;102063.01;106199;1263;124813;-86
2023/09/27 04:50:10;;;;;;;;;;;;;;;13.64;83.74;102064.63;106300;1259;65646;-86
2023/09/27 04:52:37;;;;;;;;;;;;;;;13.65;83.76;102060.44;106278;1259;125164;-86
2023/09/27 04:55:04;;;;;;;;;;;;;;;13.67;83.72;102062.42;106353;1259;61119;-85
2023/09/27 04:57:30;;;;;;;;;;;;;;;13.68;83.69;102061.95;106248;1262;126363;-83
2023/09/27 04:59:57;;;;;;;;;;;;;;;13.70;83.67;102062.73;106301;1259;74662;-86
2023/09/27 05:02:24;;;;;;;;;;;;;;;13.74;83.72;102060.39;106528;1259;63995;-82
2023/09/27 05:04:51;;;;;;;;;;;;;;;13.80;83.70;102060.23;106314;1259;125207;-85
2023/09/27 05:07:20;;;;;;;;;;;;;;;13.87;83.67;102058.86;106411;1259;61359;-85
2023/09/27 05:09:48;;;;;;;;;;;;;;;13.92;83.50;102057.61;106222;1265;125005;-87
2023/09/27 05:12:14;;;;;;;;;;;;;;;13.96;83.49;102055.46;106185;1262;73444;-83
2023/09/27 05:14:41;;;;;;;;;;;;;;;14.03;83.43;102058.14;106325;1262;66359;-82
2023/09/27 05:17:08;;;;;;;;;;;;;;;14.10;83.35;102055.35;106143;1259;124986;-87
2023/09/27 05:19:35;;;;;;;;;;;;;;;14.17;83.28;102058.40;106274;1259;61240;-92
2023/09/27 05:22:02;;;;;;;;;;;;;;;14.26;83.44;102057.98;106212;1265;125286;-87
2023/09/27 05:24:28;;;;;;;;;;;;;;;14.39;83.35;102059.41;106093;1262;61371;-87
2023/09/27 05:27:03;;;;;;;;;;;;;;;14.50;83.39;102059.59;106575;1259;61257;-88
2023/09/27 05:29:29;;;;;;;;;;;;;;;14.63;83.11;102051.70;106099;1261;125031;-89
2023/09/27 05:31:56;;;;;;;;;;;;;;;14.72;82.95;102052.32;106563;1260;61172;-88
2023/09/27 05:34:23;;;;;;;;;;;;;;;14.76;82.50;102052.80;106320;1262;125163;-88
2023/09/27 05:36:50;;;;;;;;;;;;;;;14.81;82.37;102053.61;106174;1261;75887;-88
2023/09/27 05:39:17;;;;;;;;;;;;;;;14.85;82.33;102053.02;106306;1262;66280;-88
2023/09/27 05:41:43;;;;;;;;;;;;;;;14.87;82.16;102055.56;106258;1260;124766;-88
2023/09/27 05:44:10;;;;;;;;;;;;;;;14.91;82.11;102057.08;106455;1261;59365;-89
2023/09/27 05:46:39;;;;;;;;;;;;;;;14.96;82.09;102057.41;106072;1261;124936;-89
2023/09/27 05:49:09;;;;;;;;;;;;;;;15.01;81.88;102058.58;106081;1261;74693;-88
2023/09/27 05:51:35;;;;;;;;;;;;;;;14.99;81.53;102057.29;106170;1261;125339;-89
2023/09/27 05:54:02;;;;;;;;;;;;;;;14.93;81.42;102058.73;106250;1261;72460;-88
2023/09/27 05:56:29;;;;;;;;;;;;;;;14.90;81.47;102057.78;106332;1266;61291;-88
2023/09/27 05:58:59;;;;;;;;;;;;;;;14.92;81.62;102059.22;106286;1260;125048;-88
2023/09/27 06:01:25;;;;;;;;;;;;;;;14.94;81.67;102059.14;106292;1259;72395;-88
2023/09/27 06:03:52;;;;;;;;;;;;;;;14.99;81.67;102059.95;106471;1263;125079;-88
2023/09/27 06:06:19;;;;;;;;;;;;;;;15.04;81.65;102062.20;106248;1263;70956;-89
2023/09/27 06:08:45;;;;;;;;;;;;;;;15.08;81.70;102063.73;106262;1259;61395;-88
2023/09/27 06:11:12;;;;;;;;;;;;;;;15.10;81.66;102064.34;105829;1262;125904;-88
2023/09/27 06:13:38;;;;;;;;;;;;;;;15.14;81.70;102066.21;106048;1262;73349;-88
2023/09/27 06:16:12;;;;;;;;;;;;;;;15.18;81.65;102065.08;105940;1260;125342;-88
2023/09/27 06:18:39;;;;;;;;;;;;;;;15.24;81.74;102064.52;106120;1263;72725;-88
2023/09/27 06:21:05;;;;;;;;;;;;;;;15.32;81.55;102066.88;106064;1262;61342;-89
2023/09/27 06:23:32;;;;;;;;;;;;;;;15.40;81.74;102059.81;106048;1260;125547;-87
2023/09/27 06:25:58;;;;;;;;;;;;;;;15.49;81.82;102062.54;106055;1262;74721;-88
2023/09/27 06:28:25;;;;;;;;;;;;;;;15.63;81.87;102060.92;106022;1261;124853;-88
2023/09/27 06:30:52;;;;;;;;;;;;;;;15.77;81.86;102066.08;106096;1264;72787;-88
2023/09/27 06:33:18;;;;;;;;;;;;;;;15.84;81.51;102070.70;106185;1261;61392;-85
2023/09/27 06:35:45;;;;;;;;;;;;;;;15.86;81.25;102071.80;106145;1264;125506;-88
2023/09/27 06:38:13;;;;;;;;;;;;;;;15.89;81.34;102073.29;106267;1259;73561;-86
2023/09/27 06:40:41;;;;;;;;;;;;;;;15.98;81.38;102077.40;106274;1264;125544;-88
2023/09/27 06:43:08;;;;;;;;;;;;;;;16.16;81.73;102071.44;106099;1265;72708;-87
2023/09/27 06:45:36;;;;;;;;;;;;;;;16.42;81.93;102072.39;106100;1264;125079;-88
2023/09/27 06:48:03;;;;;;;;;;;;;;;16.69;81.95;102074.04;106541;1262;61275;-82
2023/09/27 06:50:30;;;;;;;;;;;;;;;16.96;81.70;102074.25;106517;1261;74843;-82
2023/09/27 06:52:57;;;;;;;;;;;;;;;17.21;81.70;102075.27;106455;1263;124832;-82
2023/09/27 06:55:23;;;;;;;;;;;;;;;17.46;81.62;102071.81;106682;1263;71047;-82
2023/09/27 06:57:52;;;;;;;;;;;;;;;17.73;81.51;102072.99;106366;1265;125194;-82
2023/09/27 07:00:19;;;;;;;;;;;;;;;17.98;81.32;102072.00;106432;1264;61357;-82
2023/09/27 07:02:46;;;;;;;;;;;;;;;18.23;81.07;102071.84;106378;1260;74762;-82
2023/09/27 07:05:12;;;;;;;;;;;;;;;18.45;80.75;102066.45;106094;1260;125355;-81
2023/09/27 07:07:40;;;;;;;;;;;;;;;18.58;80.17;102061.14;106091;1265;71160;-81
2023/09/27 07:10:07;;;;;;;;;;;;;;;18.64;79.79;102057.30;106140;1259;125201;-81
2023/09/27 07:12:37;;;;;;;;;;;;;;;18.78;79.73;102057.13;106199;1260;61361;-82
2023/09/27 07:15:07;;;;;;;;;;;;;;;18.92;79.52;102053.94;106191;1259;73869;-82
2023/09/27 07:17:34;;;;;;;;;;;;;;;18.98;79.12;102055.23;106197;1261;124168;-83
2023/09/27 07:20:03;;;;;;;;;;;;;;;18.95;78.68;102055.55;106150;1262;70109;-82
2023/09/27 07:22:31;;;;;;;;;;;;;;;18.90;78.54;102064.04;106073;1259;124254;-81
2023/09/27 07:24:58;;;;;;;;;;;;;;;18.82;78.38;102075.50;106259;1259;59946;-82
2023/09/27 07:27:24;;;;;;;;;;;;;;;18.71;78.15;102075.34;106276;1259;124440;-82
2023/09/27 07:29:51;;;;;;;;;;;;;;;18.61;78.40;102069.54;106196;1260;64588;-82
2023/09/27 07:32:19;;;;;;;;;;;;;;;18.63;78.73;102066.88;106291;1265;61400;-82
2023/09/27 07:34:46;;;;;;;;;;;;;;;18.68;78.79;102064.27;106140;1264;124510;-82
2023/09/27 07:37:14;;;;;;;;;;;;;;;18.71;78.88;102069.83;106313;1263;61308;-82
2023/09/27 07:39:41;;;;;;;;;;;;;;;18.75;78.84;102074.67;106257;1259;124431;-82
2023/09/27 07:42:08;;;;;;;;;;;;;;;18.89;79.23;102078.08;106456;1263;66046;-82
2023/09/27 07:44:39;;;;;;;;;;;;;;;19.11;79.36;102081.52;106387;1260;71417;-82
2023/09/27 07:47:05;;;;;;;;;;;;;;;19.29;79.14;102078.88;106247;1264;125191;-82
2023/09/27 07:49:32;;;;;;;;;;;;;;;19.40;79.03;102080.95;106421;1260;61206;-82
2023/09/27 07:51:58;;;;;;;;;;;;;;;19.47;78.75;102082.25;106217;1259;124534;-82
2023/09/27 07:54:25;;;;;;;;;;;;;;;19.53;78.63;102083.91;106259;1264;66225;-82
2023/09/27 07:56:52;;;;;;;;;;;;;;;19.55;78.50;102076.09;106152;1262;72793;-81
2023/09/27 07:59:19;;;;;;;;;;;;;;;19.61;78.54;102080.61;106252;1259;124368;-81
2023/09/27 08:01:45;;;;;;;;;;;;;;;19.68;78.51;102081.20;106339;1261;59885;-83
2023/09/27 08:04:14;;;;;;;;;;;;;;;19.78;78.42;102084.52;106211;1263;124810;-82
2023/09/27 08:06:41;;;;;;;;;;;;;;;19.85;78.26;102082.44;106182;1265;65485;-82
2023/09/27 08:09:07;;;;;;;;;;;;;;;19.90;78.05;102079.63;106248;1262;72763;-81
2023/09/27 08:11:34;;;;;;;;;;;;;;;19.88;77.86;102073.73;106190;1261;125755;-84
2023/09/27 08:14:00;;;;;;;;;;;;;;;19.85;77.91;102071.40;106277;1260;62046;-83
2023/09/27 08:16:27;;;;;;;;;;;;;;;19.81;77.93;102067.63;106209;1263;125267;-83
2023/09/27 08:18:53;;;;;;;;;;;;;;;19.81;78.13;102074.39;106417;1264;65686;-83
2023/09/27 08:21:20;;;;;;;;;;;;;;;19.78;78.05;102070.64;106399;1264;70647;-84
2023/09/27 08:23:46;;;;;;;;;;;;;;;19.76;78.08;102070.62;106022;1259;124964;-81
2023/09/27 08:26:13;;;;;;;;;;;;;;;19.73;78.13;102070.95;106382;1259;59305;-82
2023/09/27 08:28:40;;;;;;;;;;;;;;;19.74;78.31;102072.20;106062;1265;124840;-82
2023/09/27 08:31:07;;;;;;;;;;;;;;;19.78;78.63;102068.31;106238;1260;66270;-83
2023/09/27 08:33:34;;;;;;;;;;;;;;;19.84;78.83;102071.04;106283;1259;124934;-82
2023/09/27 08:36:01;;;;;;;;;;;;;;;19.91;78.92;102075.54;106263;1261;61315;-82
2023/09/27 08:38:27;;;;;;;;;;;;;;;19.97;78.94;102072.38;106274;1262;61371;-82
2023/09/27 08:40:54;;;;;;;;;;;;;;;20.04;78.85;102070.45;106173;1260;124777;-83
2023/09/27 08:43:21;;;;;;;;;;;;;;;20.02;78.69;102069.39;106312;1259;66309;-84
2023/09/27 08:45:48;;;;;;;;;;;;;;;20.03;78.76;102065.46;106121;1260;125433;-83
2023/09/27 08:48:18;;;;;;;;;;;;;;;20.06;78.83;102066.20;106272;1259;61288;-84
2023/09/27 08:50:45;;;;;;;;;;;;;;;20.10;78.91;102063.02;106222;1259;60264;-82
2023/09/27 08:53:11;;;;;;;;;;;;;;;20.16;79.03;102060.20;106160;1266;124923;-83
2023/09/27 08:55:38;;;;;;;;;;;;;;;20.23;79.19;102058.64;106371;1263;65139;-83
2023/09/27 08:58:05;;;;;;;;;;;;;;;20.31;79.16;102060.30;106087;1261;125333;-83
2023/09/27 09:00:33;;;;;;;;;;;;;;;20.37;79.16;102058.02;106366;1259;61326;-83
2023/09/27 09:03:00;;;;;;;;;;;;;;;20.44;79.13;102056.26;106371;1263;61216;-83
2023/09/27 09:05:28;;;;;;;;;;;;;;;20.52;79.19;102053.09;106175;1261;124922;-83
2023/09/27 09:07:55;;;;;;;;;;;;;;;20.60;78.95;102056.54;106285;1259;65126;-83
2023/09/27 09:10:25;;;;;;;;;;;;;;;20.64;78.74;102056.75;106348;1261;125599;-83
2023/09/27 09:12:52;;;;;;;;;;;;;;;20.70;78.73;102052.67;106289;1261;61411;-83
2023/09/27 09:15:40;;;;;;;;;;;;;;;20.75;78.52;102054.83;106171;1263;59468;-84
2023/09/27 09:18:11;;;;;;;;;;;;;;;20.79;78.44;102052.70;105996;1261;190755;-84
2023/09/27 09:20:51;;;;;;;;;;;;;;;20.84;78.36;102056.11;106392;1265;65083;-84
2023/09/27 09:23:31;;;;;;;;;;;;;;;20.92;78.45;102058.45;106395;1265;124811;-84
2023/09/27 09:25:58;;;;;;;;;;;;;;;21.02;78.49;102058.30;106285;1260;61324;-83
2023/09/27 09:28:25;;;;;;;;;;;;;;;21.10;78.28;102056.36;106131;1260;124935;-85
2023/09/27 09:30:54;;;;;;;;;;;;;;;21.19;78.11;102048.88;106348;1263;73522;-84
2023/09/27 09:33:21;;;;;;;;;;;;;;;21.27;78.08;102045.13;106362;1260;64934;-84
2023/09/27 09:35:47;;;;;;;;;;;;;;;21.35;77.91;102047.64;106277;1264;124757;-83
2023/09/27 09:38:30;;;;;;;;;;;;;;;21.43;77.99;102047.31;106128;1260;60974;-84
2023/09/27 09:40:57;;;;;;;;;;;;;;;21.52;77.66;102046.09;106176;1262;125007;-83
2023/09/27 09:43:27;;;;;;;;;;;;;;;21.58;77.35;102044.47;106290;1265;75622;-83
2023/09/27 09:45:54;;;;;;;;;;;;;;;21.65;77.39;102044.30;106174;1260;125073;-83
2023/09/27 09:48:23;;;;;;;;;;;;;;;21.71;77.18;102043.75;106356;1261;61369;-83
2023/09/27 09:50:49;;;;;;;;;;;;;;;21.78;77.04;102046.08;106379;1259;61312;-83
2023/09/27 09:53:16;;;;;;;;;;;;;;;21.85;76.93;102043.38;106328;1263;124773;-83
2023/09/27 09:55:43;;;;;;;;;;;;;;;21.92;76.82;102044.80;106393;1263;73436;-84
2023/09/27 09:58:15;;;;;;;;;;;;;;;22.01;76.74;102041.75;106292;1264;124999;-83
2023/09/27 10:00:46;;;;;;;;;;;;;;;22.08;76.61;102039.59;106304;1265;72444;-84
2023/09/27 10:03:19;;;;;;;;;;;;;;;22.16;76.46;102036.00;106179;1264;61524;-83
2023/09/27 10:05:49;;;;;;;;;;;;;;;22.23;76.24;102038.13;106254;1263;124667;-85
2023/09/27 10:08:17;;;;;;;;;;;;;;;22.30;76.09;102033.48;106253;1260;74698;-85
2023/09/27 10:10:43;;;;;;;;;;;;;;;22.37;76.18;102036.33;106240;1263;124176;-82
2023/09/27 10:13:10;;;;;;;;;;;;;;;22.46;76.07;102038.08;106189;1266;71693;-83
2023/09/27 10:15:37;;;;;;;;;;;;;;;22.54;75.95;102035.90;106218;1259;124479;-83
2023/09/27 10:18:23;;;;;;;;;;;;;;;22.61;75.77;102034.45;106421;1263;61233;-83
2023/09/27 10:21:05;;;;;;;;;;;;;;;22.66;75.54;102032.44;106537;1262;73424;-83
2023/09/27 10:23:44;;;;;;;;;;;;;;;22.71;75.44;102028.14;106308;1260;124270;-83
2023/09/27 10:26:15;;;;;;;;;;;;;;;22.76;75.22;102024.17;106451;1261;72512;-87
2023/09/27 10:29:04;;;;;;;;;;;;;;;22.79;75.10;102021.47;105949;1258;125075;-88
2023/09/27 10:31:31;;;;;;;;;;;;;;;22.86;75.12;102025.02;106296;1259;61259;-88
2023/09/27 10:33:57;;;;;;;;;;;;;;;22.91;75.04;102023.36;106282;1264;125691;-86
2023/09/27 10:36:24;;;;;;;;;;;;;;;22.98;74.79;102022.98;106156;1266;66223;-84
2023/09/27 10:38:51;;;;;;;;;;;;;;;22.99;74.32;102024.41;106333;1259;72772;-84
2023/09/27 10:41:38;;;;;;;;;;;;;;;23.02;74.22;102022.24;106147;1262;125719;-83
2023/09/27 10:44:04;;;;;;;;;;;;;;;23.09;74.44;102017.92;106280;1265;61268;-83
2023/09/27 10:46:43;;;;;;;;;;;;;;;23.17;74.47;102020.20;106342;1263;124959;-84
2023/09/27 10:49:10;;;;;;;;;;;;;;;23.22;74.07;102018.71;106300;1262;66260;-83
2023/09/27 10:51:37;;;;;;;;;;;;;;;23.24;73.88;102018.34;105966;1264;125346;-81
2023/09/27 10:54:08;;;;;;;;;;;;;;;23.28;73.93;102012.95;106347;1263;61258;-83
2023/09/27 10:56:35;;;;;;;;;;;;;;;23.35;73.95;102008.42;106128;1264;59649;-83
2023/09/27 10:59:03;;;;;;;;;;;;;;;23.42;73.82;102002.63;106148;1259;125324;-83
2023/09/27 11:01:31;;;;;;;;;;;;;;;23.47;73.69;102000.95;106304;1261;66194;-83
2023/09/27 11:03:58;;;;;;;;;;;;;;;23.54;73.75;102002.33;106321;1259;125899;-82
2023/09/27 11:06:25;;;;;;;;;;;;;;;23.58;73.43;101995.33;106482;1265;61263;-82
2023/09/27 11:08:55;;;;;;;;;;;;;;;23.61;73.37;101991.53;106333;1260;61260;-83
2023/09/27 11:11:22;;;;;;;;;;;;;;;23.63;73.38;101991.86;106333;1265;125314;-81
2023/09/27 11:13:49;;;;;;;;;;;;;;;23.63;73.09;101988.81;106401;1259;66509;-81
2023/09/27 11:16:18;;;;;;;;;;;;;;;23.64;72.99;101986.84;106101;1259;125159;-82
2023/09/27 11:18:45;;;;;;;;;;;;;;;23.65;72.96;101988.44;106484;1260;61115;-83
2023/09/27 11:21:12;;;;;;;;;;;;;;;23.70;73.16;101988.75;106253;1261;61250;-82
2023/09/27 11:24:07;;;;;;;;;;;;;;;23.76;73.17;101984.94;106275;1263;124886;-82
2023/09/27 11:26:33;;;;;;;;;;;;;;;23.85;73.17;101984.34;106354;1265;66278;-82
2023/09/27 11:29:01;;;;;;;;;;;;;;;23.92;73.20;101986.05;106223;1264;124767;-83
2023/09/27 11:31:31;;;;;;;;;;;;;;;23.98;72.99;101985.80;106395;1261;61296;-83
2023/09/27 11:34:17;;;;;;;;;;;;;;;24.03;72.78;101987.01;106490;1264;125165;-83
2023/09/27 11:36:44;;;;;;;;;;;;;;;24.05;72.46;101976.02;106525;1260;74087;-83
2023/09/27 11:39:13;;;;;;;;;;;;;;;24.09;72.49;101974.56;106513;1260;65292;-83
2023/09/27 11:41:40;;;;;;;;;;;;;;;24.17;72.63;101970.33;108701;1261;124792;-83
2023/09/27 11:44:16;;;;;;;;;;;;;;;24.26;72.63;101969.69;106558;1265;61261;-82
2023/09/27 11:46:43;;;;;;;;;;;;;;;24.32;72.43;101966.92;106351;1264;124122;-82
2023/09/27 11:49:11;;;;;;;;;;;;;;;24.36;72.10;101963.46;106423;1260;74643;-82
2023/09/27 11:51:37;;;;;;;;;;;;;;;24.41;71.91;101963.04;106117;1264;124297;-83
2023/09/27 11:54:04;;;;;;;;;;;;;;;24.45;71.72;101963.70;106264;1260;75031;-82
2023/09/27 11:56:34;;;;;;;;;;;;;;;24.48;71.49;101965.64;106301;1263;61355;-84
2023/09/27 11:59:04;;;;;;;;;;;;;;;24.50;71.06;101966.34;106229;1263;124854;-82
2023/09/27 12:01:31;;;;;;;;;;;;;;;24.51;70.62;101969.73;106318;1261;73397;-82
2023/09/27 12:03:58;;;;;;;;;;;;;;;24.53;70.30;101971.89;105977;1260;125961;-83
2023/09/27 12:06:25;;;;;;;;;;;;;;;24.55;70.14;101970.42;106225;1264;72709;-83
2023/09/27 12:08:54;;;;;;;;;;;;;;;24.56;69.86;101967.54;106351;1264;61359;-82
2023/09/27 12:11:21;;;;;;;;;;;;;;;24.57;69.60;101962.85;106166;1261;124775;-85
2023/09/27 12:13:48;;;;;;;;;;;;;;;24.60;69.60;101962.63;106245;1263;72976;-82
2023/09/27 12:16:16;;;;;;;;;;;;;;;24.63;69.53;101955.94;106158;1260;124470;-82
2023/09/27 12:18:42;;;;;;;;;;;;;;;24.70;69.56;101949.21;106298;1261;72786;-82
2023/09/27 12:21:09;;;;;;;;;;;;;;;24.75;69.63;101945.19;106452;1263;61352;-82
2023/09/27 12:23:35;;;;;;;;;;;;;;;24.81;69.23;101946.71;106337;1260;124261;-82
2023/09/27 12:26:02;;;;;;;;;;;;;;;24.82;69.02;101936.98;106311;1264;73823;-82